sensor_id;sensor_type;location;lat;lon;timestamp;pressure;altitude;pressure_sealevel;temperature;humidity
75192;BME280;63771;52.580;9.734;2023-08-20T00:00:03;101705.75;;;21.46;98.51
75192;BME280;63771;52.580;9.734;2023-08-20T00:02:32;101704.50;;;21.39;99.33
75192;BME280;63771;52.580;9.734;2023-08-20T00:04:58;101703.38;;;21.34;99.47
75192;BME280;63771;52.580;9.734;2023-08-20T00:07:24;101700.69;;;21.32;99.68
75192;BME280;63771;52.580;9.734;2023-08-20T00:09:49;101703.09;;;21.29;99.49
75192;BME280;63771;52.580;9.734;2023-08-20T00:12:14;101702.75;;;21.23;100.00
75192;BME280;63771;52.580;9.734;2023-08-20T00:15:00;101704.84;;;21.14;100.00
75192;BME280;63771;52.580;9.734;2023-08-20T00:17:33;101708.19;;;21.11;100.00
75192;BME280;63771;52.580;9.734;2023-08-20T00:19:59;101706.41;;;21.10;100.00
75192;BME280;63771;52.580;9.734;2023-08-20T00:22:25;101707.03;;;21.06;100.00
75192;BME280;63771;52.580;9.734;2023-08-20T00:24:53;101705.31;;;21.07;100.00
75192;BME280;63771;52.580;9.734;2023-08-20T00:27:18;101712.47;;;21.11;100.00
75192;BME280;63771;52.580;9.734;2023-08-20T00:29:44;101714.88;;;21.08;99.54
75192;BME280;63771;52.580;9.734;2023-08-20T00:32:09;101711.31;;;21.06;98.96
75192;BME280;63771;52.580;9.734;2023-08-20T00:34:35;101724.94;;;21.02;98.76
75192;BME280;63771;52.580;9.734;2023-08-20T00:37:01;101723.84;;;20.98;98.51
75192;BME280;63771;52.580;9.734;2023-08-20T00:39:26;101720.22;;;20.95;98.54
75192;BME280;63771;52.580;9.734;2023-08-20T00:41:52;101722.63;;;20.92;97.81
75192;BME280;63771;52.580;9.734;2023-08-20T00:44:17;101734.44;;;20.87;97.34
75192;BME280;63771;52.580;9.734;2023-08-20T00:46:42;101729.88;;;20.82;97.46
75192;BME280;63771;52.580;9.734;2023-08-20T00:49:08;101734.19;;;20.82;97.60
75192;BME280;63771;52.580;9.734;2023-08-20T00:51:34;101742.78;;;20.81;96.81
75192;BME280;63771;52.580;9.734;2023-08-20T00:54:01;101734.84;;;20.78;97.19
75192;BME280;63771;52.580;9.734;2023-08-20T00:56:27;101731.31;;;20.77;97.17
75192;BME280;63771;52.580;9.734;2023-08-20T00:58:53;101732.94;;;20.75;96.45
75192;BME280;63771;52.580;9.734;2023-08-20T01:01:19;101733.84;;;20.76;96.58
75192;BME280;63771;52.580;9.734;2023-08-20T01:03:44;101731.31;;;20.77;96.58
75192;BME280;63771;52.580;9.734;2023-08-20T01:06:39;101730.44;;;20.77;95.73
75192;BME280;63771;52.580;9.734;2023-08-20T01:09:55;101727.56;;;20.72;95.42
75192;BME280;63771;52.580;9.734;2023-08-20T01:12:22;101731.53;;;20.66;95.58
75192;BME280;63771;52.580;9.734;2023-08-20T01:14:48;101731.53;;;20.66;95.33
75192;BME280;63771;52.580;9.734;2023-08-20T01:17:13;101727.97;;;20.64;95.10
75192;BME280;63771;52.580;9.734;2023-08-20T01:19:39;101722.59;;;20.61;94.71
75192;BME280;63771;52.580;9.734;2023-08-20T01:27:44;101726.25;;;20.64;93.74
75192;BME280;63771;52.580;9.734;2023-08-20T01:30:18;101722.59;;;20.61;93.25
75192;BME280;63771;52.580;9.734;2023-08-20T01:32:43;101724.03;;;20.55;92.61
75192;BME280;63771;52.580;9.734;2023-08-20T01:35:13;101730.25;;;20.44;92.98
75192;BME280;63771;52.580;9.734;2023-08-20T01:37:39;101727.41;;;20.40;93.15
75192;BME280;63771;52.580;9.734;2023-08-20T01:40:06;101729.09;;;20.39;93.04
75192;BME280;63771;52.580;9.734;2023-08-20T01:42:33;101734.00;;;20.34;93.44
75192;BME280;63771;52.580;9.734;2023-08-20T01:44:58;101735.44;;;20.29;93.17
75192;BME280;63771;52.580;9.734;2023-08-20T01:47:24;101737.06;;;20.27;93.19
75192;BME280;63771;52.580;9.734;2023-08-20T01:49:49;101736.25;;;20.28;93.03
75192;BME280;63771;52.580;9.734;2023-08-20T01:52:14;101737.22;;;20.30;93.34
75192;BME280;63771;52.580;9.734;2023-08-20T01:54:40;101731.88;;;20.27;93.00
75192;BME280;63771;52.580;9.734;2023-08-20T01:57:05;101725.97;;;20.30;93.26
75192;BME280;63771;52.580;9.734;2023-08-20T01:59:30;101732.69;;;20.26;92.75
75192;BME280;63771;52.580;9.734;2023-08-20T02:01:55;101730.09;;;20.26;93.01
75192;BME280;63771;52.580;9.734;2023-08-20T02:04:21;101727.50;;;20.26;92.94
75192;BME280;63771;52.580;9.734;2023-08-20T02:06:46;101733.28;;;20.22;92.75
75192;BME280;63771;52.580;9.734;2023-08-20T02:09:11;101737.50;;;20.20;92.27
75192;BME280;63771;52.580;9.734;2023-08-20T02:11:37;101732.94;;;20.16;92.76
75192;BME280;63771;52.580;9.734;2023-08-20T02:14:02;101736.34;;;20.15;92.85
75192;BME280;63771;52.580;9.734;2023-08-20T02:16:28;101740.72;;;20.16;92.80
75192;BME280;63771;52.580;9.734;2023-08-20T02:18:53;101740.34;;;20.10;93.07
75192;BME280;63771;52.580;9.734;2023-08-20T02:21:19;101743.63;;;20.07;93.10
75192;BME280;63771;52.580;9.734;2023-08-20T02:23:44;101739.19;;;20.05;92.42
75192;BME280;63771;52.580;9.734;2023-08-20T02:26:10;101742.66;;;20.05;92.64
75192;BME280;63771;52.580;9.734;2023-08-20T02:28:35;101743.63;;;20.07;92.93
75192;BME280;63771;52.580;9.734;2023-08-20T02:31:04;101742.47;;;20.02;92.51
75192;BME280;63771;52.580;9.734;2023-08-20T02:33:29;101740.41;;;19.97;92.49
75192;BME280;63771;52.580;9.734;2023-08-20T02:35:55;101745.38;;;19.94;93.01
75192;BME280;63771;52.580;9.734;2023-08-20T02:38:20;101744.34;;;19.90;92.92
75192;BME280;63771;52.580;9.734;2023-08-20T02:40:45;101747.44;;;19.85;93.52
75192;BME280;63771;52.580;9.734;2023-08-20T02:43:11;101748.94;;;19.81;93.17
75192;BME280;63771;52.580;9.734;2023-08-20T02:45:40;101751.44;;;19.79;93.18
75192;BME280;63771;52.580;9.734;2023-08-20T02:48:07;101758.34;;;19.79;93.84
75192;BME280;63771;52.580;9.734;2023-08-20T02:50:32;101758.03;;;19.74;93.36
75192;BME280;63771;52.580;9.734;2023-08-20T02:52:57;101756.94;;;19.71;93.74
75192;BME280;63771;52.580;9.734;2023-08-20T02:55:23;101756.56;;;19.65;93.81
75192;BME280;63771;52.580;9.734;2023-08-20T02:57:48;101758.75;;;19.59;93.67
75192;BME280;63771;52.580;9.734;2023-08-20T03:00:13;101755.78;;;19.52;93.91
75192;BME280;63771;52.580;9.734;2023-08-20T03:02:39;101751.31;;;19.50;94.61
75192;BME280;63771;52.580;9.734;2023-08-20T03:05:07;101756.09;;;19.44;94.23
75192;BME280;63771;52.580;9.734;2023-08-20T03:07:32;101764.16;;;19.35;95.45
75192;BME280;63771;52.580;9.734;2023-08-20T03:09:58;101768.53;;;19.36;95.81
75192;BME280;63771;52.580;9.734;2023-08-20T03:12:23;101770.38;;;19.37;94.79
75192;BME280;63771;52.580;9.734;2023-08-20T03:14:48;101777.13;;;19.35;94.65
75192;BME280;63771;52.580;9.734;2023-08-20T03:17:14;101763.69;;;19.27;95.35
75192;BME280;63771;52.580;9.734;2023-08-20T03:19:53;101765.09;;;19.22;96.17
75192;BME280;63771;52.580;9.734;2023-08-20T03:22:19;101779.72;;;19.22;95.46
75192;BME280;63771;52.580;9.734;2023-08-20T03:24:44;101767.38;;;19.18;95.88
75192;BME280;63771;52.580;9.734;2023-08-20T03:27:10;101766.28;;;19.14;96.41
75192;BME280;63771;52.580;9.734;2023-08-20T03:29:35;101769.47;;;19.10;96.17
75192;BME280;63771;52.580;9.734;2023-08-20T03:32:01;101760.94;;;19.11;96.00
75192;BME280;63771;52.580;9.734;2023-08-20T03:34:26;101764.28;;;19.10;95.90
75192;BME280;63771;52.580;9.734;2023-08-20T03:36:51;101773.66;;;19.08;95.58
75192;BME280;63771;52.580;9.734;2023-08-20T03:39:17;101751.78;;;19.03;95.38
75192;BME280;63771;52.580;9.734;2023-08-20T03:41:42;101764.63;;;19.01;95.77
75192;BME280;63771;52.580;9.734;2023-08-20T03:44:07;101760.94;;;18.98;95.64
75192;BME280;63771;52.580;9.734;2023-08-20T03:46:33;101763.31;;;18.95;95.98
75192;BME280;63771;52.580;9.734;2023-08-20T03:48:58;101756.34;;;18.94;95.95
75192;BME280;63771;52.580;9.734;2023-08-20T03:51:23;101752.97;;;18.95;96.12
75192;BME280;63771;52.580;9.734;2023-08-20T03:53:48;101765.31;;;18.86;96.13
75192;BME280;63771;52.580;9.734;2023-08-20T03:56:14;101767.69;;;18.83;96.31
75192;BME280;63771;52.580;9.734;2023-08-20T03:58:39;101769.47;;;18.84;95.95
75192;BME280;63771;52.580;9.734;2023-08-20T04:01:04;101776.16;;;18.80;96.07
75192;BME280;63771;52.580;9.734;2023-08-20T04:03:30;101773.34;;;18.77;96.36
75192;BME280;63771;52.580;9.734;2023-08-20T04:05:55;101782.22;;;18.81;96.11
75192;BME280;63771;52.580;9.734;2023-08-20T04:08:20;101791.38;;;18.75;96.29
75192;BME280;63771;52.580;9.734;2023-08-20T04:10:46;101793.97;;;18.75;95.79
75192;BME280;63771;52.580;9.734;2023-08-20T04:13:11;101796.22;;;18.71;96.45
75192;BME280;63771;52.580;9.734;2023-08-20T04:15:39;101790.84;;;18.68;97.15
75192;BME280;63771;52.580;9.734;2023-08-20T04:18:04;101800.25;;;18.67;96.68
75192;BME280;63771;52.580;9.734;2023-08-20T04:20:29;101789.81;;;18.66;96.40
75192;BME280;63771;52.580;9.734;2023-08-20T04:22:55;101801.06;;;18.66;96.86
75192;BME280;63771;52.580;9.734;2023-08-20T04:25:20;101795.88;;;18.66;96.72
75192;BME280;63771;52.580;9.734;2023-08-20T04:27:45;101786.69;;;18.70;96.76
75192;BME280;63771;52.580;9.734;2023-08-20T04:30:11;101789.16;;;18.68;96.93
75192;BME280;63771;52.580;9.734;2023-08-20T04:32:37;101786.44;;;18.67;96.82
75192;BME280;63771;52.580;9.734;2023-08-20T04:35:02;101790.84;;;18.68;97.23
75192;BME280;63771;52.580;9.734;2023-08-20T04:37:27;101795.00;;;18.66;96.76
75192;BME280;63771;52.580;9.734;2023-08-20T04:39:53;101799.28;;;18.65;97.16
75192;BME280;63771;52.580;9.734;2023-08-20T04:42:18;101797.66;;;18.67;96.62
75192;BME280;63771;52.580;9.734;2023-08-20T04:44:43;101804.53;;;18.67;96.53
75192;BME280;63771;52.580;9.734;2023-08-20T04:47:12;101806.00;;;18.63;97.41
75192;BME280;63771;52.580;9.734;2023-08-20T04:49:40;101812.78;;;18.61;96.84
75192;BME280;63771;52.580;9.734;2023-08-20T04:52:05;101811.00;;;18.60;96.92
75192;BME280;63771;52.580;9.734;2023-08-20T04:54:31;101816.06;;;18.59;97.45
75192;BME280;63771;52.580;9.734;2023-08-20T04:56:56;101815.94;;;18.57;97.10
75192;BME280;63771;52.580;9.734;2023-08-20T04:59:21;101821.25;;;18.59;97.15
75192;BME280;63771;52.580;9.734;2023-08-20T05:01:47;101814.38;;;18.59;97.05
75192;BME280;63771;52.580;9.734;2023-08-20T05:04:12;101829.88;;;18.59;97.56
75192;BME280;63771;52.580;9.734;2023-08-20T05:06:38;101821.91;;;18.56;98.04
75192;BME280;63771;52.580;9.734;2023-08-20T05:09:03;101827.97;;;18.57;98.06
75192;BME280;63771;52.580;9.734;2023-08-20T05:11:29;101826.28;;;18.57;98.47
75192;BME280;63771;52.580;9.734;2023-08-20T05:13:56;101827.31;;;18.59;98.85
75192;BME280;63771;52.580;9.734;2023-08-20T05:16:22;101834.34;;;18.62;99.09
75192;BME280;63771;52.580;9.734;2023-08-20T05:18:47;101834.44;;;18.63;99.83
75192;BME280;63771;52.580;9.734;2023-08-20T05:21:12;101830.50;;;18.68;100.00
75192;BME280;63771;52.580;9.734;2023-08-20T05:23:41;101815.22;;;18.71;99.97
75192;BME280;63771;52.580;9.734;2023-08-20T05:26:07;101831.03;;;18.76;99.35
75192;BME280;63771;52.580;9.734;2023-08-20T05:28:34;101832.16;;;18.80;99.93
75192;BME280;63771;52.580;9.734;2023-08-20T05:30:59;101826.28;;;18.82;99.92
75192;BME280;63771;52.580;9.734;2023-08-20T05:33:25;101821.31;;;18.85;100.00
75192;BME280;63771;52.580;9.734;2023-08-20T05:35:50;101810.34;;;18.89;99.50
75192;BME280;63771;52.580;9.734;2023-08-20T05:38:16;101810.47;;;18.91;99.40
75192;BME280;63771;52.580;9.734;2023-08-20T05:40:41;101825.38;;;18.95;99.08
75192;BME280;63771;52.580;9.734;2023-08-20T05:43:07;101807.50;;;18.98;99.47
75192;BME280;63771;52.580;9.734;2023-08-20T05:45:32;101791.38;;;19.02;98.86
75192;BME280;63771;52.580;9.734;2023-08-20T05:47:57;101798.44;;;19.04;99.47
75192;BME280;63771;52.580;9.734;2023-08-20T05:50:23;101797.84;;;19.09;99.75
75192;BME280;63771;52.580;9.734;2023-08-20T05:52:48;101790.38;;;19.13;99.93
75192;BME280;63771;52.580;9.734;2023-08-20T05:55:14;101789.78;;;19.17;99.67
75192;BME280;63771;52.580;9.734;2023-08-20T05:57:39;101788.28;;;19.21;100.00
75192;BME280;63771;52.580;9.734;2023-08-20T06:00:06;101785.09;;;19.25;99.80
75192;BME280;63771;52.580;9.734;2023-08-20T06:02:32;101791.38;;;19.28;99.95
75192;BME280;63771;52.580;9.734;2023-08-20T06:04:57;101780.22;;;19.29;100.00
75192;BME280;63771;52.580;9.734;2023-08-20T06:07:22;101789.06;;;19.33;99.79
75192;BME280;63771;52.580;9.734;2023-08-20T06:09:48;101787.47;;;19.35;99.17
75192;BME280;63771;52.580;9.734;2023-08-20T06:12:15;101789.25;;;19.36;99.98
75192;BME280;63771;52.580;9.734;2023-08-20T06:14:41;101792.13;;;19.41;99.07
75192;BME280;63771;52.580;9.734;2023-08-20T06:17:06;101791.53;;;19.45;99.64
75192;BME280;63771;52.580;9.734;2023-08-20T06:19:31;101799.50;;;19.48;98.63
75192;BME280;63771;52.580;9.734;2023-08-20T06:21:57;101799.69;;;19.51;98.25
75192;BME280;63771;52.580;9.734;2023-08-20T06:24:23;101799.00;;;19.53;98.02
75192;BME280;63771;52.580;9.734;2023-08-20T06:26:48;101800.19;;;19.59;97.02
75192;BME280;63771;52.580;9.734;2023-08-20T06:29:14;101809.19;;;19.64;96.68
75192;BME280;63771;52.580;9.734;2023-08-20T06:31:39;101812.66;;;19.64;96.92
75192;BME280;63771;52.580;9.734;2023-08-20T06:34:05;101806.75;;;19.67;96.04
75192;BME280;63771;52.580;9.734;2023-08-20T06:36:30;101807.84;;;19.70;95.20
75192;BME280;63771;52.580;9.734;2023-08-20T06:38:55;101808.84;;;19.72;94.76
75192;BME280;63771;52.580;9.734;2023-08-20T06:41:20;101812.81;;;19.80;93.14
75192;BME280;63771;52.580;9.734;2023-08-20T06:43:46;101810.50;;;19.85;93.85
75192;BME280;63771;52.580;9.734;2023-08-20T06:46:11;101807.19;;;19.88;94.17
75192;BME280;63771;52.580;9.734;2023-08-20T06:48:36;101814.28;;;19.90;93.69
75192;BME280;63771;52.580;9.734;2023-08-20T06:51:12;101810.16;;;19.94;93.47
75192;BME280;63771;52.580;9.734;2023-08-20T06:53:38;101812.94;;;19.97;93.09
75192;BME280;63771;52.580;9.734;2023-08-20T06:56:03;101817.44;;;19.99;92.74
75192;BME280;63771;52.580;9.734;2023-08-20T06:58:29;101818.50;;;20.03;92.65
75192;BME280;63771;52.580;9.734;2023-08-20T07:00:54;101818.69;;;20.06;92.22
75192;BME280;63771;52.580;9.734;2023-08-20T07:03:20;101827.66;;;20.11;92.53
75192;BME280;63771;52.580;9.734;2023-08-20T07:05:45;101823.53;;;20.15;92.26
75192;BME280;63771;52.580;9.734;2023-08-20T07:08:10;101826.41;;;20.19;92.17
75192;BME280;63771;52.580;9.734;2023-08-20T07:10:36;101821.41;;;20.22;91.96
75192;BME280;63771;52.580;9.734;2023-08-20T07:13:01;101823.41;;;20.26;91.53
75192;BME280;63771;52.580;9.734;2023-08-20T07:15:26;101814.00;;;20.28;90.55
75192;BME280;63771;52.580;9.734;2023-08-20T07:17:51;101820.38;;;20.33;90.53
75192;BME280;63771;52.580;9.734;2023-08-20T07:20:17;101825.63;;;20.35;89.51
75192;BME280;63771;52.580;9.734;2023-08-20T07:22:42;101823.31;;;20.40;88.99
75192;BME280;63771;52.580;9.734;2023-08-20T07:25:08;101811.44;;;20.43;89.42
75192;BME280;63771;52.580;9.734;2023-08-20T07:27:33;101814.50;;;20.51;89.77
75192;BME280;63771;52.580;9.734;2023-08-20T07:29:59;101812.31;;;20.57;89.83
75192;BME280;63771;52.580;9.734;2023-08-20T07:32:24;101810.06;;;20.63;89.34
75192;BME280;63771;52.580;9.734;2023-08-20T07:34:49;101813.84;;;20.68;88.94
75192;BME280;63771;52.580;9.734;2023-08-20T07:37:15;101813.09;;;20.71;88.24
75192;BME280;63771;52.580;9.734;2023-08-20T07:39:40;101813.38;;;20.75;87.37
75192;BME280;63771;52.580;9.734;2023-08-20T07:42:06;101818.09;;;20.82;87.01
75192;BME280;63771;52.580;9.734;2023-08-20T07:44:31;101814.88;;;20.87;87.42
75192;BME280;63771;52.580;9.734;2023-08-20T07:46:57;101820.53;;;20.94;87.37
75192;BME280;63771;52.580;9.734;2023-08-20T07:49:22;101814.78;;;21.00;87.21
75192;BME280;63771;52.580;9.734;2023-08-20T07:51:47;101812.47;;;21.04;86.58
75192;BME280;63771;52.580;9.734;2023-08-20T07:54:14;101818.69;;;21.08;85.55
75192;BME280;63771;52.580;9.734;2023-08-20T07:56:39;101819.88;;;21.13;85.51
75192;BME280;63771;52.580;9.734;2023-08-20T07:59:05;101815.66;;;21.15;84.71
75192;BME280;63771;52.580;9.734;2023-08-20T08:01:30;101821.13;;;21.20;84.62
75192;BME280;63771;52.580;9.734;2023-08-20T08:03:55;101816.72;;;21.19;83.87
75192;BME280;63771;52.580;9.734;2023-08-20T08:06:20;101818.59;;;21.21;82.47
75192;BME280;63771;52.580;9.734;2023-08-20T08:08:48;101825.03;;;21.28;82.66
75192;BME280;63771;52.580;9.734;2023-08-20T08:11:13;101822.72;;;21.32;82.45
75192;BME280;63771;52.580;9.734;2023-08-20T08:13:39;101824.69;;;21.36;83.53
75192;BME280;63771;52.580;9.734;2023-08-20T08:16:04;101825.84;;;21.42;82.58
75192;BME280;63771;52.580;9.734;2023-08-20T08:18:29;101833.78;;;21.45;82.71
75192;BME280;63771;52.580;9.734;2023-08-20T08:20:55;101835.06;;;21.51;84.13
75192;BME280;63771;52.580;9.734;2023-08-20T08:23:20;101830.19;;;21.57;83.83
75192;BME280;63771;52.580;9.734;2023-08-20T08:25:45;101832.22;;;21.63;83.26
75192;BME280;63771;52.580;9.734;2023-08-20T08:28:11;101833.53;;;21.71;83.25
75192;BME280;63771;52.580;9.734;2023-08-20T08:30:37;101833.69;;;21.74;79.17
75192;BME280;63771;52.580;9.734;2023-08-20T08:33:03;101832.25;;;21.79;78.76
75192;BME280;63771;52.580;9.734;2023-08-20T08:35:29;101842.91;;;21.84;79.54
75192;BME280;63771;52.580;9.734;2023-08-20T08:37:54;101832.75;;;21.88;80.56
75192;BME280;63771;52.580;9.734;2023-08-20T08:40:19;101836.50;;;21.94;81.70
75192;BME280;63771;52.580;9.734;2023-08-20T08:42:48;101840.25;;;21.99;80.92
75192;BME280;63771;52.580;9.734;2023-08-20T08:45:20;101830.81;;;22.01;78.69
75192;BME280;63771;52.580;9.734;2023-08-20T08:47:47;101826.56;;;22.03;77.75
75192;BME280;63771;52.580;9.734;2023-08-20T08:50:13;101829.53;;;22.09;77.91
75192;BME280;63771;52.580;9.734;2023-08-20T08:52:39;101832.28;;;22.12;78.68
75192;BME280;63771;52.580;9.734;2023-08-20T08:55:06;101828.16;;;22.16;76.38
75192;BME280;63771;52.580;9.734;2023-08-20T08:57:35;101841.56;;;22.23;75.74
75192;BME280;63771;52.580;9.734;2023-08-20T09:00:00;101838.47;;;22.30;74.28
75192;BME280;63771;52.580;9.734;2023-08-20T09:02:25;101842.22;;;22.35;73.04
75192;BME280;63771;52.580;9.734;2023-08-20T09:04:52;101838.22;;;22.42;74.17
75192;BME280;63771;52.580;9.734;2023-08-20T09:07:17;101844.72;;;22.50;75.63
75192;BME280;63771;52.580;9.734;2023-08-20T09:09:44;101834.53;;;22.55;75.57
75192;BME280;63771;52.580;9.734;2023-08-20T09:12:13;101831.28;;;22.59;73.19
75192;BME280;63771;52.580;9.734;2023-08-20T09:14:39;101833.22;;;22.63;72.08
75192;BME280;63771;52.580;9.734;2023-08-20T09:17:08;101827.44;;;22.69;72.21
75192;BME280;63771;52.580;9.734;2023-08-20T09:19:37;101836.38;;;22.74;73.17
75192;BME280;63771;52.580;9.734;2023-08-20T09:22:02;101825.31;;;22.78;73.29
75192;BME280;63771;52.580;9.734;2023-08-20T09:24:40;101831.69;;;22.84;74.56
75192;BME280;63771;52.580;9.734;2023-08-20T09:27:08;101825.88;;;22.88;75.02
75192;BME280;63771;52.580;9.734;2023-08-20T09:29:44;101824.38;;;22.94;74.74
75192;BME280;63771;52.580;9.734;2023-08-20T09:32:20;101815.97;;;22.99;75.10
75192;BME280;63771;52.580;9.734;2023-08-20T09:34:47;101813.66;;;23.05;74.91
75192;BME280;63771;52.580;9.734;2023-08-20T09:37:14;101816.50;;;23.10;74.37
75192;BME280;63771;52.580;9.734;2023-08-20T09:39:40;101811.59;;;23.16;73.34
75192;BME280;63771;52.580;9.734;2023-08-20T09:42:06;101815.31;;;23.21;73.39
75192;BME280;63771;52.580;9.734;2023-08-20T09:44:36;101812.03;;;23.25;73.79
75192;BME280;63771;52.580;9.734;2023-08-20T09:47:05;101814.88;;;23.30;73.98
75192;BME280;63771;52.580;9.734;2023-08-20T09:49:45;101819.47;;;23.35;73.83
75192;BME280;63771;52.580;9.734;2023-08-20T09:52:12;101805.78;;;23.39;74.07
75192;BME280;63771;52.580;9.734;2023-08-20T09:55:16;101807.78;;;23.45;70.46
75192;BME280;63771;52.580;9.734;2023-08-20T09:57:40;101810.88;;;23.56;70.32
75192;BME280;63771;52.580;9.734;2023-08-20T10:00:08;101805.00;;;23.60;68.96
75192;BME280;63771;52.580;9.734;2023-08-20T10:02:37;101806.16;;;23.65;70.27
75192;BME280;63771;52.580;9.734;2023-08-20T10:05:05;101802.84;;;23.69;69.70
75192;BME280;63771;52.580;9.734;2023-08-20T10:07:31;101796.06;;;23.73;69.42
75192;BME280;63771;52.580;9.734;2023-08-20T10:09:58;101804.09;;;23.77;70.93
75192;BME280;63771;52.580;9.734;2023-08-20T10:12:26;101802.53;;;23.81;70.96
75192;BME280;63771;52.580;9.734;2023-08-20T10:14:52;101802.84;;;23.88;70.60
75192;BME280;63771;52.580;9.734;2023-08-20T10:17:18;101801.34;;;23.93;70.29
75192;BME280;63771;52.580;9.734;2023-08-20T10:19:43;101801.50;;;23.97;66.48
75192;BME280;63771;52.580;9.734;2023-08-20T10:22:08;101802.44;;;23.99;65.88
75192;BME280;63771;52.580;9.734;2023-08-20T10:24:41;101800.00;;;24.02;66.01
75192;BME280;63771;52.580;9.734;2023-08-20T10:27:12;101802.94;;;24.09;65.87
75192;BME280;63771;52.580;9.734;2023-08-20T10:29:37;101796.25;;;24.16;64.16
75192;BME280;63771;52.580;9.734;2023-08-20T10:32:13;101802.50;;;24.19;62.37
75192;BME280;63771;52.580;9.734;2023-08-20T10:34:42;101809.56;;;24.22;64.74
75192;BME280;63771;52.580;9.734;2023-08-20T10:37:14;101805.53;;;24.29;64.10
75192;BME280;63771;52.580;9.734;2023-08-20T10:39:39;101802.53;;;24.39;64.68
75192;BME280;63771;52.580;9.734;2023-08-20T10:42:21;101793.63;;;24.55;64.83
75192;BME280;63771;52.580;9.734;2023-08-20T10:45:07;101799.78;;;24.57;61.50
75192;BME280;63771;52.580;9.734;2023-08-20T10:50:08;101802.28;;;24.54;62.14
75192;BME280;63771;52.580;9.734;2023-08-20T10:52:40;101805.59;;;24.50;63.42
75192;BME280;63771;52.580;9.734;2023-08-20T10:55:07;101801.94;;;24.46;64.74
75192;BME280;63771;52.580;9.734;2023-08-20T10:57:36;101806.09;;;24.41;63.90
75192;BME280;63771;52.580;9.734;2023-08-20T11:00:04;101814.84;;;24.43;63.59
75192;BME280;63771;52.580;9.734;2023-08-20T11:02:40;101808.25;;;24.51;63.29
75192;BME280;63771;52.580;9.734;2023-08-20T11:05:17;101808.56;;;24.59;61.20
75192;BME280;63771;52.580;9.734;2023-08-20T11:07:47;101810.50;;;24.63;61.96
75192;BME280;63771;52.580;9.734;2023-08-20T11:10:14;101810.06;;;24.73;61.40
75192;BME280;63771;52.580;9.734;2023-08-20T11:12:40;101803.25;;;24.77;60.29
75192;BME280;63771;52.580;9.734;2023-08-20T11:15:07;101803.25;;;24.77;61.03
75192;BME280;63771;52.580;9.734;2023-08-20T11:17:33;101817.34;;;24.80;61.82
75192;BME280;63771;52.580;9.734;2023-08-20T11:19:58;101816.56;;;24.83;61.72
75192;BME280;63771;52.580;9.734;2023-08-20T11:22:24;101811.47;;;24.86;61.90
75192;BME280;63771;52.580;9.734;2023-08-20T11:24:49;101810.69;;;24.88;59.93
75192;BME280;63771;52.580;9.734;2023-08-20T11:27:14;101814.38;;;24.93;60.60
75192;BME280;63771;52.580;9.734;2023-08-20T11:29:43;101813.69;;;24.97;60.34
75192;BME280;63771;52.580;9.734;2023-08-20T11:32:09;101814.38;;;24.93;59.52
75192;BME280;63771;52.580;9.734;2023-08-20T11:34:35;101816.16;;;24.94;59.69
75192;BME280;63771;52.580;9.734;2023-08-20T11:37:01;101805.84;;;24.97;60.13
75192;BME280;63771;52.580;9.734;2023-08-20T11:39:26;101805.00;;;24.98;62.10
75192;BME280;63771;52.580;9.734;2023-08-20T11:41:53;101793.81;;;25.01;64.64
75192;BME280;63771;52.580;9.734;2023-08-20T11:44:20;101806.25;;;25.07;63.18
75192;BME280;63771;52.580;9.734;2023-08-20T11:46:48;101802.16;;;25.13;60.38
75192;BME280;63771;52.580;9.734;2023-08-20T11:49:15;101794.38;;;25.15;58.38
75192;BME280;63771;52.580;9.734;2023-08-20T11:51:47;101793.88;;;25.23;58.91
75192;BME280;63771;52.580;9.734;2023-08-20T11:54:14;101798.44;;;25.29;56.99
75192;BME280;63771;52.580;9.734;2023-08-20T11:59:10;101806.69;;;25.40;58.77
75192;BME280;63771;52.580;9.734;2023-08-20T12:01:36;101795.50;;;25.42;55.79
75192;BME280;63771;52.580;9.734;2023-08-20T12:04:06;101795.59;;;25.45;58.55
75192;BME280;63771;52.580;9.734;2023-08-20T12:06:34;101800.94;;;25.48;57.83
75192;BME280;63771;52.580;9.734;2023-08-20T12:09:00;101800.19;;;25.52;58.97
75192;BME280;63771;52.580;9.734;2023-08-20T12:11:29;101797.50;;;25.49;58.36
75192;BME280;63771;52.580;9.734;2023-08-20T12:13:55;101790.59;;;25.51;60.27
75192;BME280;63771;52.580;9.734;2023-08-20T12:16:23;101793.28;;;25.53;61.43
75192;BME280;63771;52.580;9.734;2023-08-20T12:18:51;101788.06;;;25.53;61.42
75192;BME280;63771;52.580;9.734;2023-08-20T12:21:17;101793.19;;;25.51;61.38
75192;BME280;63771;52.580;9.734;2023-08-20T12:23:43;101786.91;;;25.46;58.91
75192;BME280;63771;52.580;9.734;2023-08-20T12:26:08;101784.19;;;25.43;60.26
75192;BME280;63771;52.580;9.734;2023-08-20T12:28:34;101790.25;;;25.42;59.46
75192;BME280;63771;52.580;9.734;2023-08-20T12:30:59;101791.28;;;25.47;60.18
75192;BME280;63771;52.580;9.734;2023-08-20T12:33:25;101782.88;;;25.55;59.69
75192;BME280;63771;52.580;9.734;2023-08-20T12:35:53;101780.50;;;25.61;60.14
75192;BME280;63771;52.580;9.734;2023-08-20T12:38:19;101779.31;;;25.75;59.13
75192;BME280;63771;52.580;9.734;2023-08-20T12:40:44;101779.66;;;25.84;57.83
75192;BME280;63771;52.580;9.734;2023-08-20T12:43:10;101781.66;;;25.91;57.76
75192;BME280;63771;52.580;9.734;2023-08-20T12:45:35;101776.59;;;25.96;55.61
75192;BME280;63771;52.580;9.734;2023-08-20T12:48:00;101771.41;;;25.97;55.56
75192;BME280;63771;52.580;9.734;2023-08-20T12:50:26;101773.41;;;26.05;56.77
75192;BME280;63771;52.580;9.734;2023-08-20T12:52:51;101768.28;;;26.08;58.58
75192;BME280;63771;52.580;9.734;2023-08-20T12:55:16;101759.94;;;26.18;59.16
75192;BME280;63771;52.580;9.734;2023-08-20T12:57:53;101770.56;;;26.22;57.42